createdAt,value
2022-12-02T00:01:53.405Z,6.01
2022-12-02T00:04:24.653Z,5.97
2022-12-02T00:06:53.337Z,5.96
2022-12-02T00:09:29.115Z,6.02
2022-12-02T00:11:55.836Z,6.02
2022-12-02T00:14:25.401Z,6.06
2022-12-02T00:16:52.679Z,6.10
2022-12-02T00:19:19.640Z,6.12
2022-12-02T00:21:46.707Z,6.10
2022-12-02T00:24:13.430Z,6.11
2022-12-02T00:26:40.040Z,6.10
2022-12-02T00:29:06.836Z,6.13
2022-12-02T00:31:33.622Z,6.18
2022-12-02T00:34:00.681Z,6.20
2022-12-02T00:36:28.450Z,6.21
2022-12-02T00:38:56.227Z,6.19
2022-12-02T00:41:23.796Z,6.20
2022-12-02T00:44:09.666Z,6.14
2022-12-02T00:46:37.482Z,6.18
2022-12-02T00:49:13.277Z,6.22
2022-12-02T00:51:41.531Z,6.22
2022-12-02T00:54:08.295Z,6.24
2022-12-02T00:56:35.234Z,6.23
2022-12-02T00:59:02.091Z,6.24
2022-12-02T01:01:29.675Z,6.25
2022-12-02T01:03:56.716Z,6.24
2022-12-02T01:06:23.481Z,6.19
2022-12-02T01:08:50.365Z,6.19
2022-12-02T01:11:17.581Z,6.25
2022-12-02T01:13:44.440Z,6.20
2022-12-02T01:16:11.310Z,6.17
2022-12-02T01:18:38.072Z,6.25
2022-12-02T01:21:04.719Z,6.20
2022-12-02T01:23:31.321Z,6.28
2022-12-02T01:25:57.944Z,6.30
2022-12-02T01:28:24.572Z,6.24
2022-12-02T01:30:51.340Z,6.23
2022-12-02T01:33:17.892Z,6.18
2022-12-02T01:35:44.484Z,6.16
2022-12-02T01:38:11.123Z,6.14
2022-12-02T01:40:38.051Z,6.10
2022-12-02T01:43:04.769Z,6.04
2022-12-02T01:45:31.556Z,6.05
2022-12-02T01:48:02.642Z,6.07
2022-12-02T01:50:30.387Z,6.04
2022-12-02T01:52:58.605Z,6.09
2022-12-02T01:55:27.888Z,6.07
2022-12-02T01:57:55.728Z,5.98
2022-12-02T02:00:22.627Z,5.96
2022-12-02T02:02:49.299Z,6.00
2022-12-02T02:05:20.129Z,6.01
2022-12-02T02:07:53.008Z,6.12
2022-12-02T02:10:21.813Z,6.06
2022-12-02T02:12:50.912Z,6.09
2022-12-02T02:15:18.173Z,6.01
2022-12-02T02:17:45.411Z,6.01
2022-12-02T02:20:17.689Z,6.08
2022-12-02T02:22:53.326Z,6.10
2022-12-02T02:25:20.785Z,6.01
2022-12-02T02:27:59.284Z,5.91
2022-12-02T02:30:28.969Z,5.93
2022-12-02T02:32:56.736Z,6.01
2022-12-02T02:35:24.268Z,5.99
2022-12-02T02:37:52.474Z,6.01
2022-12-02T02:40:22.596Z,5.97
2022-12-02T02:42:52.914Z,5.98
2022-12-02T02:45:25.762Z,5.98
2022-12-02T02:47:53.587Z,5.97
2022-12-02T02:50:20.925Z,6.03
2022-12-02T02:52:47.849Z,6.02
2022-12-02T02:55:19.004Z,6.01
2022-12-02T02:57:45.863Z,6.06
2022-12-02T03:00:13.303Z,6.04
2022-12-02T03:02:41.309Z,6.04
2022-12-02T03:05:08.760Z,5.90
2022-12-02T03:07:36.218Z,6.01
2022-12-02T03:10:05.381Z,5.99
2022-12-02T03:12:32.522Z,5.99
2022-12-02T03:15:00.616Z,5.96
2022-12-02T03:17:27.338Z,5.90
2022-12-02T03:19:54.133Z,5.99
2022-12-02T03:22:20.821Z,6.09
2022-12-02T03:24:47.586Z,6.05
2022-12-02T03:27:14.613Z,5.97
2022-12-02T03:29:42.336Z,6.01
2022-12-02T03:32:10.977Z,5.98
2022-12-02T03:34:41.815Z,5.86
2022-12-02T03:37:09.673Z,5.95
2022-12-02T03:39:37.217Z,6.02
2022-12-02T03:42:04.982Z,6.00
2022-12-02T03:44:31.623Z,6.05
2022-12-02T03:46:58.518Z,6.05
2022-12-02T03:49:25.890Z,6.05
2022-12-02T03:51:52.763Z,6.05
2022-12-02T03:54:19.542Z,5.97
2022-12-02T03:56:46.381Z,6.03
2022-12-02T03:59:20.526Z,5.98
2022-12-02T04:01:47.274Z,5.96
2022-12-02T04:04:13.951Z,5.97
2022-12-02T04:06:40.674Z,5.98
2022-12-02T04:09:07.311Z,5.95
2022-12-02T04:11:33.953Z,5.97
2022-12-02T04:14:00.550Z,5.94
2022-12-02T04:16:27.333Z,5.96
2022-12-02T04:18:53.970Z,5.92
2022-12-02T04:21:21.836Z,6.00
2022-12-02T04:23:48.733Z,5.90
2022-12-02T04:26:15.336Z,6.02
2022-12-02T04:28:41.935Z,6.03
2022-12-02T04:31:08.560Z,6.07
2022-12-02T04:33:35.216Z,5.96
2022-12-02T04:36:01.918Z,6.01
2022-12-02T04:38:28.709Z,6.00
2022-12-02T04:40:55.415Z,5.94
2022-12-02T04:43:22.052Z,5.86
2022-12-02T04:45:48.728Z,5.80
2022-12-02T04:48:15.366Z,5.85
2022-12-02T04:50:41.944Z,5.78
2022-12-02T04:53:08.697Z,5.79
2022-12-02T04:55:35.307Z,5.80
2022-12-02T04:58:01.960Z,5.78
2022-12-02T05:00:28.593Z,5.78
2022-12-02T05:02:55.501Z,5.81
2022-12-02T05:05:22.118Z,5.81
2022-12-02T05:07:48.809Z,5.77
2022-12-02T05:10:15.587Z,5.74
2022-12-02T05:12:42.186Z,5.80
2022-12-02T05:15:09.167Z,5.74
2022-12-02T05:17:40.486Z,5.85
2022-12-02T05:20:08.947Z,5.86
2022-12-02T05:22:35.815Z,5.82
2022-12-02T05:25:02.467Z,5.83
2022-12-02T05:27:35.016Z,5.90
2022-12-02T05:30:02.783Z,5.81
2022-12-02T05:32:29.490Z,5.87
2022-12-02T05:34:56.086Z,5.84
2022-12-02T05:37:22.843Z,5.84
2022-12-02T05:39:52.826Z,5.96
2022-12-02T05:42:19.434Z,5.98
2022-12-02T05:44:46.283Z,6.02
2022-12-02T05:47:15.845Z,5.99
2022-12-02T05:49:43.920Z,6.04
2022-12-02T05:52:26.742Z,5.98
2022-12-02T05:54:59.895Z,5.96
2022-12-02T05:57:30.303Z,5.96
2022-12-02T06:00:12.744Z,5.97
2022-12-02T06:02:42.935Z,5.97
2022-12-02T06:05:23.695Z,5.89
2022-12-02T06:07:54.309Z,5.89
2022-12-02T06:10:25.006Z,5.91
2022-12-02T06:12:54.437Z,5.96
2022-12-02T06:15:21.172Z,5.95
2022-12-02T06:17:47.827Z,6.06
2022-12-02T06:20:26.870Z,6.08
2022-12-02T06:22:53.615Z,6.22
2022-12-02T06:25:28.925Z,6.19
2022-12-02T06:28:30.844Z,6.24
2022-12-02T06:31:10.267Z,6.33
2022-12-02T06:33:38.214Z,6.30
2022-12-02T06:36:12.076Z,6.33
2022-12-02T06:38:47.805Z,6.35
2022-12-02T06:41:25.123Z,6.36
2022-12-02T06:44:15.685Z,6.41
2022-12-02T06:46:42.302Z,6.39
2022-12-02T06:49:34.270Z,6.42
2022-12-02T06:52:15.477Z,6.38
2022-12-02T06:54:45.134Z,6.35
2022-12-02T06:57:13.088Z,6.35
2022-12-02T06:59:47.603Z,6.42
2022-12-02T07:02:27.629Z,6.40
2022-12-02T07:04:55.455Z,6.42
2022-12-02T07:07:29.921Z,6.46
2022-12-02T07:10:16.053Z,6.52
2022-12-02T07:12:45.414Z,6.65
2022-12-02T07:15:32.008Z,6.68
2022-12-02T07:18:10.845Z,6.74
2022-12-02T07:20:39.315Z,6.80
2022-12-02T07:23:19.071Z,6.74
2022-12-02T07:25:56.280Z,6.75
2022-12-02T07:28:32.832Z,6.80
2022-12-02T07:31:18.140Z,6.84
2022-12-02T07:33:44.773Z,6.82
2022-12-02T07:36:11.485Z,6.73
2022-12-02T07:39:04.892Z,6.74
2022-12-02T07:41:24.634Z,6.82
2022-12-02T07:43:51.222Z,6.80
2022-12-02T07:46:17.993Z,6.87
2022-12-02T07:48:44.646Z,6.90
2022-12-02T07:51:11.285Z,6.95
2022-12-02T07:53:38.012Z,6.91
2022-12-02T07:56:04.925Z,6.95
2022-12-02T07:59:02.886Z,6.92
2022-12-02T08:01:19.852Z,6.77
2022-12-02T08:03:47.051Z,6.77
2022-12-02T08:06:13.741Z,6.77
2022-12-02T08:08:40.320Z,6.83
2022-12-02T08:11:06.931Z,6.74
2022-12-02T08:13:33.520Z,6.64
2022-12-02T08:16:00.128Z,6.60
2022-12-02T08:18:26.796Z,6.57
2022-12-02T08:20:53.487Z,6.63
2022-12-02T08:23:20.088Z,6.61
2022-12-02T08:25:46.939Z,6.73
2022-12-02T08:28:14.947Z,6.77
2022-12-02T08:30:41.712Z,6.80
2022-12-02T08:33:08.473Z,6.90
2022-12-02T08:35:35.104Z,6.94
2022-12-02T08:38:01.724Z,6.95
2022-12-02T08:40:28.303Z,6.88
2022-12-02T08:42:54.879Z,6.94
2022-12-02T08:45:21.556Z,6.95
2022-12-02T08:47:48.160Z,6.92
2022-12-02T08:50:14.955Z,6.86
2022-12-02T08:52:41.597Z,6.73
2022-12-02T08:55:08.448Z,6.77
2022-12-02T08:57:35.137Z,6.88
2022-12-02T09:00:02.585Z,6.90
2022-12-02T09:02:29.339Z,6.91
2022-12-02T09:04:55.957Z,6.90
2022-12-02T09:07:22.570Z,7.01
2022-12-02T09:09:49.252Z,7.11
2022-12-02T09:12:15.903Z,7.11
2022-12-02T09:14:42.537Z,7.16
2022-12-02T09:17:09.220Z,7.23
2022-12-02T09:19:35.882Z,7.19
2022-12-02T09:22:02.520Z,7.26
2022-12-02T09:24:29.187Z,7.24
2022-12-02T09:26:55.871Z,7.19
2022-12-02T09:29:22.645Z,7.19
2022-12-02T09:31:49.277Z,7.12
2022-12-02T09:34:15.904Z,7.09
2022-12-02T09:36:42.589Z,7.13
2022-12-02T09:39:09.259Z,7.21
2022-12-02T09:41:37.078Z,6.99
2022-12-02T09:44:05.069Z,6.99
2022-12-02T09:46:32.028Z,7.20
2022-12-02T09:48:59.024Z,7.29
2022-12-02T09:51:25.789Z,7.37
2022-12-02T09:53:53.021Z,7.45
2022-12-02T09:56:22.121Z,7.49
2022-12-02T09:58:54.834Z,7.37
2022-12-02T10:01:22.131Z,7.38
2022-12-02T10:03:51.178Z,7.36
2022-12-02T10:06:24.869Z,7.45
2022-12-02T10:08:53.751Z,7.49
2022-12-02T10:11:35.188Z,7.62
2022-12-02T10:14:03.850Z,7.66
2022-12-02T10:16:30.608Z,7.80
2022-12-02T10:19:05.052Z,7.80
2022-12-02T10:21:31.822Z,7.82
2022-12-02T10:24:05.139Z,7.83
2022-12-02T10:26:52.438Z,7.88
2022-12-02T10:29:28.792Z,7.84
2022-12-02T10:31:59.483Z,8.01
2022-12-02T10:34:29.017Z,7.87
2022-12-02T10:36:56.141Z,7.76
2022-12-02T10:39:37.934Z,7.83
2022-12-02T10:42:05.079Z,7.88
2022-12-02T10:44:34.060Z,7.84
2022-12-02T10:47:26.105Z,7.97
2022-12-02T10:49:55.929Z,7.91
2022-12-02T10:52:27.106Z,7.98
2022-12-02T10:54:57.004Z,7.98
2022-12-02T10:57:29.843Z,7.95
2022-12-02T10:59:59.333Z,7.74
2022-12-02T11:02:36.057Z,7.67
2022-12-02T11:05:14.756Z,7.67
2022-12-02T11:07:41.879Z,7.69
2022-12-02T11:10:20.282Z,7.73
2022-12-02T11:12:49.640Z,7.83
2022-12-02T11:15:31.618Z,7.77
2022-12-02T11:17:58.334Z,7.80
2022-12-02T11:20:41.537Z,7.63
2022-12-02T11:23:34.890Z,7.60
2022-12-02T11:26:13.761Z,7.66
2022-12-02T11:29:16.268Z,7.67
2022-12-02T11:31:43.348Z,7.71
2022-12-02T11:34:26.063Z,7.85
2022-12-02T11:37:26.406Z,7.82
2022-12-02T11:40:24.074Z,7.92
2022-12-02T11:42:52.841Z,7.99
2022-12-02T11:45:19.547Z,8.04
2022-12-02T11:47:55.763Z,8.02
2022-12-02T11:50:27.729Z,7.95
2022-12-02T11:52:57.333Z,7.93
2022-12-02T11:55:33.312Z,7.97
2022-12-02T11:58:00.409Z,8.02
2022-12-02T12:00:37.494Z,7.98
2022-12-02T12:03:18.150Z,8.02
2022-12-02T12:06:08.170Z,8.12
2022-12-02T12:08:36.237Z,8.18
2022-12-02T12:11:20.002Z,8.16
2022-12-02T12:14:20.936Z,8.22
2022-12-02T12:16:49.781Z,8.21
2022-12-02T12:19:16.400Z,8.19
2022-12-02T12:21:47.964Z,8.21
2022-12-02T12:24:17.660Z,8.23
2022-12-02T12:26:45.744Z,8.21
2022-12-02T12:29:13.123Z,8.05
2022-12-02T12:31:39.790Z,8.04
2022-12-02T12:34:07.862Z,8.15
2022-12-02T12:36:35.318Z,8.11
2022-12-02T12:39:02.143Z,8.18
2022-12-02T12:41:57.932Z,8.02
2022-12-02T12:44:15.472Z,8.06
2022-12-02T12:46:42.284Z,8.17
2022-12-02T12:49:09.812Z,7.96
2022-12-02T12:51:36.548Z,7.98
2022-12-02T12:54:03.278Z,8.13
2022-12-02T12:56:29.876Z,8.18
2022-12-02T12:58:56.455Z,8.15
2022-12-02T13:01:24.930Z,8.16
2022-12-02T13:03:52.426Z,8.02
2022-12-02T13:06:20.777Z,8.19
2022-12-02T13:08:47.578Z,8.13
2022-12-02T13:11:14.519Z,8.11
2022-12-02T13:13:41.153Z,8.09
2022-12-02T13:16:07.877Z,8.05
2022-12-02T13:18:34.587Z,8.07
2022-12-02T13:21:01.166Z,8.08
2022-12-02T13:23:27.840Z,8.09
2022-12-02T13:25:54.454Z,7.98
2022-12-02T13:28:21.127Z,8.03
2022-12-02T13:30:47.938Z,8.01
2022-12-02T13:33:14.592Z,7.95
2022-12-02T13:35:41.188Z,7.95
2022-12-02T13:38:07.850Z,7.98
2022-12-02T13:40:34.570Z,8.02
2022-12-02T13:43:01.146Z,7.93
2022-12-02T13:45:28.137Z,7.92
2022-12-02T13:47:54.841Z,7.97
2022-12-02T13:50:21.640Z,7.93
2022-12-02T13:52:48.305Z,7.88
2022-12-02T13:55:15.039Z,7.92
2022-12-02T13:57:41.624Z,7.92
2022-12-02T14:00:08.835Z,7.98
2022-12-02T14:02:35.420Z,8.04
2022-12-02T14:05:07.511Z,8.04
2022-12-02T14:07:34.902Z,7.96
2022-12-02T14:10:01.583Z,7.93
2022-12-02T14:12:28.166Z,7.91
2022-12-02T14:14:54.952Z,7.99
2022-12-02T14:17:21.562Z,7.93
2022-12-02T14:19:48.141Z,7.94
2022-12-02T14:22:17.168Z,7.96
2022-12-02T14:24:48.547Z,7.94
2022-12-02T14:27:15.769Z,8.04
2022-12-02T14:29:42.362Z,7.99
2022-12-02T14:32:09.047Z,8.07
2022-12-02T14:34:35.767Z,8.03
2022-12-02T14:37:02.453Z,7.99
2022-12-02T14:39:29.010Z,7.99
2022-12-02T14:41:55.655Z,8.04
2022-12-02T14:44:22.219Z,8.00
2022-12-02T14:46:48.954Z,7.95
2022-12-02T14:52:02.358Z,7.92
2022-12-02T14:54:28.968Z,8.00
2022-12-02T14:56:55.635Z,8.00
2022-12-02T14:59:22.350Z,8.06
2022-12-02T15:01:49.094Z,8.02
2022-12-02T15:04:15.714Z,8.03
2022-12-02T15:06:43.975Z,8.04
2022-12-02T15:09:10.893Z,8.00
2022-12-02T15:11:37.460Z,8.01
2022-12-02T15:14:04.221Z,7.92
2022-12-02T15:16:31.045Z,8.02
2022-12-02T15:18:57.745Z,7.98
2022-12-02T15:21:24.322Z,7.94
2022-12-02T15:23:50.929Z,7.95
2022-12-02T15:26:17.542Z,7.88
2022-12-02T15:28:44.129Z,7.88
2022-12-02T15:31:10.743Z,7.90
2022-12-02T15:33:37.393Z,7.92
2022-12-02T15:36:04.337Z,7.91
2022-12-02T15:38:33.104Z,7.92
2022-12-02T15:41:00.528Z,7.95
2022-12-02T15:43:27.263Z,7.95
2022-12-02T15:45:53.998Z,7.88
2022-12-02T15:48:20.734Z,7.82
2022-12-02T15:50:51.675Z,7.84
2022-12-02T15:53:21.335Z,7.81
2022-12-02T15:55:48.214Z,7.86
2022-12-02T15:58:14.808Z,7.89
2022-12-02T16:00:41.588Z,7.91
2022-12-02T16:03:08.281Z,7.92
2022-12-02T16:05:34.938Z,7.85
2022-12-02T16:08:01.970Z,7.83
2022-12-02T16:10:28.679Z,7.73
2022-12-02T16:12:55.292Z,7.77
2022-12-02T16:15:21.853Z,7.83
2022-12-02T16:17:48.619Z,7.86
2022-12-02T16:20:15.378Z,7.84
2022-12-02T16:22:41.929Z,7.88
2022-12-02T16:25:08.980Z,7.89
2022-12-02T16:27:35.716Z,7.84
2022-12-02T16:30:02.360Z,7.89
2022-12-02T16:32:28.963Z,7.84
2022-12-02T16:34:55.726Z,7.82
2022-12-02T16:37:23.124Z,7.82
2022-12-02T16:39:50.099Z,7.87
2022-12-02T16:42:17.017Z,7.81
2022-12-02T16:44:43.864Z,7.87
2022-12-02T16:47:10.667Z,7.78
2022-12-02T16:49:37.308Z,7.76
2022-12-02T16:52:04.097Z,7.72
2022-12-02T16:54:30.807Z,7.67
2022-12-02T16:56:57.514Z,7.62
2022-12-02T16:59:24.535Z,7.60
2022-12-02T17:01:51.238Z,7.63
2022-12-02T17:04:18.103Z,7.62
2022-12-02T17:06:45.658Z,7.57
2022-12-02T17:09:12.602Z,7.59
2022-12-02T17:11:39.388Z,7.65
2022-12-02T17:14:06.431Z,7.62
2022-12-02T17:16:33.489Z,7.60
2022-12-02T17:19:00.153Z,7.59
2022-12-02T17:21:26.718Z,7.61
2022-12-02T17:23:53.367Z,7.53
2022-12-02T17:26:20.282Z,7.56
2022-12-02T17:28:46.919Z,7.42
2022-12-02T17:31:13.574Z,7.48
2022-12-02T17:33:40.311Z,7.49
2022-12-02T17:36:07.659Z,7.52
2022-12-02T17:38:55.485Z,7.42
2022-12-02T17:41:24.500Z,7.41
2022-12-02T17:43:51.222Z,7.43
2022-12-02T17:46:18.096Z,7.43
2022-12-02T17:48:44.851Z,7.45
2022-12-02T17:51:12.850Z,7.39
2022-12-02T17:53:40.339Z,7.37
2022-12-02T17:56:07.880Z,7.44
2022-12-02T17:58:35.033Z,7.48
2022-12-02T18:01:06.112Z,7.42
2022-12-02T18:03:37.831Z,7.42
2022-12-02T18:06:06.174Z,7.38
2022-12-02T18:08:33.337Z,7.35
2022-12-02T18:11:00.303Z,7.31
2022-12-02T18:13:26.903Z,7.31
2022-12-02T18:15:53.611Z,7.39
2022-12-02T18:18:20.414Z,7.24
2022-12-02T18:20:47.078Z,7.31
2022-12-02T18:23:14.073Z,7.27
2022-12-02T18:25:40.874Z,7.25
2022-12-02T18:28:07.591Z,7.24
2022-12-02T18:30:34.256Z,7.26
2022-12-02T18:33:00.934Z,7.34
2022-12-02T18:35:28.245Z,7.28
2022-12-02T18:37:55.052Z,7.32
2022-12-02T18:40:21.888Z,7.32
2022-12-02T18:42:48.521Z,7.28
2022-12-02T18:45:15.560Z,7.31
2022-12-02T18:47:42.277Z,7.29
2022-12-02T18:50:10.448Z,7.28
2022-12-02T18:52:37.140Z,7.25
2022-12-02T18:55:05.114Z,7.23
2022-12-02T18:57:31.836Z,7.23
2022-12-02T18:59:58.754Z,7.21
2022-12-02T19:02:25.496Z,7.20
2022-12-02T19:04:52.529Z,7.23
2022-12-02T19:07:19.579Z,7.13
2022-12-02T19:09:51.662Z,7.12
2022-12-02T19:12:20.244Z,7.05
2022-12-02T19:14:46.996Z,7.05
2022-12-02T19:17:13.671Z,7.03
2022-12-02T19:19:40.333Z,7.08
2022-12-02T19:22:07.102Z,7.01
2022-12-02T19:24:33.939Z,7.04
2022-12-02T19:27:00.893Z,7.05
2022-12-02T19:29:27.803Z,7.10
2022-12-02T19:31:54.615Z,7.14
2022-12-02T19:34:21.523Z,7.09
2022-12-02T19:36:48.210Z,7.25
2022-12-02T19:39:15.826Z,7.35
2022-12-02T19:41:43.038Z,7.34
2022-12-02T19:44:09.673Z,7.35
2022-12-02T19:46:36.545Z,7.18
2022-12-02T19:49:03.589Z,7.21
2022-12-02T19:51:30.416Z,7.27
2022-12-02T19:53:58.404Z,7.26
2022-12-02T19:56:25.296Z,7.22
2022-12-02T19:58:51.931Z,7.24
2022-12-02T20:01:18.694Z,7.28
2022-12-02T20:03:45.297Z,7.40
2022-12-02T20:06:11.936Z,7.38
2022-12-02T20:08:38.494Z,7.36
2022-12-02T20:11:05.270Z,7.37
2022-12-02T20:13:32.020Z,7.38
2022-12-02T20:15:59.127Z,7.39
2022-12-02T20:18:26.256Z,7.42
2022-12-02T20:20:52.910Z,7.38
2022-12-02T20:23:19.543Z,7.36
2022-12-02T20:25:46.222Z,7.34
2022-12-02T20:28:12.880Z,7.35
2022-12-02T20:30:39.534Z,7.30
2022-12-02T20:33:06.206Z,7.37
2022-12-02T20:35:33.179Z,7.40
2022-12-02T20:38:01.216Z,7.36
2022-12-02T20:40:28.259Z,7.38
2022-12-02T20:42:54.850Z,7.37
2022-12-02T20:45:22.171Z,7.42
2022-12-02T20:47:48.851Z,7.41
2022-12-02T20:50:15.589Z,7.45
2022-12-02T20:52:42.217Z,7.47
2022-12-02T20:55:09.707Z,7.43
2022-12-02T20:57:36.306Z,7.37
2022-12-02T21:00:03.027Z,7.40
2022-12-02T21:02:29.770Z,7.34
2022-12-02T21:04:56.427Z,7.37
2022-12-02T21:07:23.305Z,7.36
2022-12-02T21:09:50.247Z,7.43
2022-12-02T21:12:16.845Z,7.39
2022-12-02T21:14:43.482Z,7.35
2022-12-02T21:17:10.092Z,7.38
2022-12-02T21:19:36.686Z,7.33
2022-12-02T21:22:03.307Z,7.21
2022-12-02T21:24:29.915Z,7.10
2022-12-02T21:26:56.506Z,7.02
2022-12-02T21:29:23.053Z,6.97
2022-12-02T21:31:49.740Z,6.98
2022-12-02T21:34:16.398Z,7.01
2022-12-02T21:36:42.923Z,6.98
2022-12-02T21:39:09.801Z,7.02
2022-12-02T21:41:36.400Z,6.94
2022-12-02T21:44:03.062Z,6.98
2022-12-02T21:46:29.683Z,6.92
2022-12-02T21:48:56.282Z,6.99
2022-12-02T21:51:22.850Z,6.94
2022-12-02T21:53:49.426Z,6.96
2022-12-02T21:56:16.101Z,6.97
2022-12-02T21:58:42.724Z,6.95
2022-12-02T22:01:27.817Z,6.98
2022-12-02T22:03:54.407Z,6.92
2022-12-02T22:06:21.087Z,6.95
2022-12-02T22:08:47.628Z,6.93
2022-12-02T22:11:14.184Z,6.92
2022-12-02T22:13:40.775Z,6.95
2022-12-02T22:16:07.694Z,7.04
2022-12-02T22:18:34.355Z,6.93
2022-12-02T22:21:01.147Z,6.90
2022-12-02T22:23:27.807Z,6.73
2022-12-02T22:25:54.713Z,6.78
2022-12-02T22:28:21.366Z,6.71
2022-12-02T22:30:47.978Z,6.70
2022-12-02T22:33:14.591Z,6.67
2022-12-02T22:35:41.306Z,6.68
2022-12-02T22:38:08.031Z,6.68
2022-12-02T22:40:34.651Z,6.67
2022-12-02T22:43:01.303Z,6.65
2022-12-02T22:45:27.953Z,6.67
2022-12-02T22:47:54.536Z,6.67
2022-12-02T22:50:21.171Z,6.64
2022-12-02T22:52:47.693Z,6.64
2022-12-02T22:55:14.358Z,6.65
2022-12-02T22:57:40.946Z,6.69
2022-12-02T23:00:09.106Z,6.64
2022-12-02T23:02:35.896Z,6.64
2022-12-02T23:05:02.742Z,6.67
2022-12-02T23:07:29.699Z,6.54
2022-12-02T23:09:56.376Z,6.57
2022-12-02T23:12:23.018Z,6.58
2022-12-02T23:14:49.709Z,6.57
2022-12-02T23:17:16.300Z,6.54
2022-12-02T23:19:42.911Z,6.49
2022-12-02T23:22:09.606Z,6.42
2022-12-02T23:24:36.283Z,6.42
2022-12-02T23:27:02.874Z,6.40
2022-12-02T23:29:29.530Z,6.40
2022-12-02T23:31:56.062Z,6.49
2022-12-02T23:34:22.714Z,6.44
2022-12-02T23:36:49.307Z,6.37
2022-12-02T23:39:15.996Z,6.36
2022-12-02T23:41:42.596Z,6.46
2022-12-02T23:44:09.201Z,6.41
2022-12-02T23:46:35.968Z,6.51
2022-12-02T23:49:02.692Z,6.48
2022-12-02T23:51:29.479Z,6.31
2022-12-02T23:53:56.192Z,6.34
2022-12-02T23:56:22.794Z,6.35
2022-12-02T23:58:49.433Z,6.37
